sensor_id;sensor_type;location;lat;lon;timestamp;pressure;altitude;pressure_sealevel;temperature;humidity
46642;BME280;32370;41.864;-88.124;2023-02-28T00:01:43;96662.53;;;4.76;100.00
46642;BME280;32370;41.864;-88.124;2023-02-28T00:04:11;96679.88;;;4.83;100.00
46642;BME280;32370;41.864;-88.124;2023-02-28T00:06:39;96679.21;;;4.85;100.00
46642;BME280;32370;41.864;-88.124;2023-02-28T00:09:07;96693.03;;;4.75;100.00
46642;BME280;32370;41.864;-88.124;2023-02-28T00:11:35;96697.34;;;4.65;100.00
46642;BME280;32370;41.864;-88.124;2023-02-28T00:14:03;96697.51;;;4.45;100.00
46642;BME280;32370;41.864;-88.124;2023-02-28T00:16:30;96715.14;;;4.45;100.00
46642;BME280;32370;41.864;-88.124;2023-02-28T00:18:58;96733.84;;;4.32;100.00
46642;BME280;32370;41.864;-88.124;2023-02-28T00:21:26;96738.46;;;4.27;100.00
46642;BME280;32370;41.864;-88.124;2023-02-28T00:23:54;96750.55;;;4.52;100.00
46642;BME280;32370;41.864;-88.124;2023-02-28T00:26:22;96754.82;;;4.43;100.00
46642;BME280;32370;41.864;-88.124;2023-02-28T00:28:51;96771.92;;;4.27;100.00
46642;BME280;32370;41.864;-88.124;2023-02-28T00:31:19;96784.22;;;4.08;100.00
46642;BME280;32370;41.864;-88.124;2023-02-28T00:33:47;96792.23;;;3.73;100.00
46642;BME280;32370;41.864;-88.124;2023-02-28T00:36:15;96798.22;;;4.19;100.00
46642;BME280;32370;41.864;-88.124;2023-02-28T00:38:43;96817.34;;;4.04;100.00
46642;BME280;32370;41.864;-88.124;2023-02-28T00:41:11;96820.04;;;3.95;100.00
46642;BME280;32370;41.864;-88.124;2023-02-28T00:43:40;96830.23;;;3.79;100.00
46642;BME280;32370;41.864;-88.124;2023-02-28T00:46:08;96849.40;;;3.66;100.00
46642;BME280;32370;41.864;-88.124;2023-02-28T00:48:37;96861.79;;;3.58;100.00
46642;BME280;32370;41.864;-88.124;2023-02-28T00:51:05;96871.87;;;3.73;100.00
46642;BME280;32370;41.864;-88.124;2023-02-28T00:53:35;96875.72;;;3.82;100.00
46642;BME280;32370;41.864;-88.124;2023-02-28T00:56:03;96880.93;;;3.63;100.00
46642;BME280;32370;41.864;-88.124;2023-02-28T00:58:31;96894.87;;;3.74;100.00
46642;BME280;32370;41.864;-88.124;2023-02-28T01:00:59;96903.89;;;3.61;100.00
46642;BME280;32370;41.864;-88.124;2023-02-28T01:03:26;96906.89;;;3.59;100.00
46642;BME280;32370;41.864;-88.124;2023-02-28T01:05:55;96911.51;;;3.78;100.00
46642;BME280;32370;41.864;-88.124;2023-02-28T01:08:23;96910.70;;;3.79;100.00
46642;BME280;32370;41.864;-88.124;2023-02-28T01:10:50;96921.73;;;3.53;100.00
46642;BME280;32370;41.864;-88.124;2023-02-28T01:13:19;96927.75;;;3.80;100.00
46642;BME280;32370;41.864;-88.124;2023-02-28T01:15:50;96934.89;;;3.47;100.00
46642;BME280;32370;41.864;-88.124;2023-02-28T01:18:19;96942.87;;;3.49;100.00
46642;BME280;32370;41.864;-88.124;2023-02-28T01:20:47;96946.10;;;3.32;100.00
46642;BME280;32370;41.864;-88.124;2023-02-28T01:23:15;96961.79;;;3.49;100.00
46642;BME280;32370;41.864;-88.124;2023-02-28T01:25:43;96966.56;;;3.25;100.00
46642;BME280;32370;41.864;-88.124;2023-02-28T01:28:11;96977.19;;;3.28;100.00
46642;BME280;32370;41.864;-88.124;2023-02-28T01:30:39;96984.42;;;3.35;100.00
46642;BME280;32370;41.864;-88.124;2023-02-28T01:33:07;96987.28;;;3.23;100.00
46642;BME280;32370;41.864;-88.124;2023-02-28T01:35:35;96993.87;;;3.31;100.00
46642;BME280;32370;41.864;-88.124;2023-02-28T01:38:03;97003.86;;;3.36;100.00
46642;BME280;32370;41.864;-88.124;2023-02-28T01:40:31;97008.29;;;3.27;100.00
46642;BME280;32370;41.864;-88.124;2023-02-28T01:42:59;97022.47;;;3.24;100.00
46642;BME280;32370;41.864;-88.124;2023-02-28T01:45:29;97018.09;;;3.22;100.00
46642;BME280;32370;41.864;-88.124;2023-02-28T01:48:02;97033.48;;;3.26;100.00
46642;BME280;32370;41.864;-88.124;2023-02-28T01:50:35;97034.38;;;2.80;100.00
46642;BME280;32370;41.864;-88.124;2023-02-28T01:53:08;97055.44;;;3.07;100.00
46642;BME280;32370;41.864;-88.124;2023-02-28T01:55:40;97071.47;;;2.97;100.00
46642;BME280;32370;41.864;-88.124;2023-02-28T01:58:10;97072.86;;;3.23;100.00
46642;BME280;32370;41.864;-88.124;2023-02-28T02:00:38;97075.64;;;3.09;100.00
46642;BME280;32370;41.864;-88.124;2023-02-28T02:03:08;97080.12;;;3.02;100.00
46642;BME280;32370;41.864;-88.124;2023-02-28T02:05:39;97096.17;;;3.18;100.00
46642;BME280;32370;41.864;-88.124;2023-02-28T02:08:10;97098.09;;;3.36;100.00
46642;BME280;32370;41.864;-88.124;2023-02-28T02:10:42;97105.38;;;3.14;100.00
46642;BME280;32370;41.864;-88.124;2023-02-28T02:13:21;97108.80;;;3.06;100.00
46642;BME280;32370;41.864;-88.124;2023-02-28T02:16:00;97116.45;;;2.88;100.00
46642;BME280;32370;41.864;-88.124;2023-02-28T02:18:36;97121.61;;;2.85;100.00
46642;BME280;32370;41.864;-88.124;2023-02-28T02:22:20;97136.14;;;3.78;100.00
46642;BME280;32370;41.864;-88.124;2023-02-28T02:25:05;97147.40;;;2.91;100.00
46642;BME280;32370;41.864;-88.124;2023-02-28T02:27:55;97160.49;;;3.09;100.00
46642;BME280;32370;41.864;-88.124;2023-02-28T02:31:01;97166.01;;;2.92;100.00
46642;BME280;32370;41.864;-88.124;2023-02-28T02:34:26;97184.69;;;3.51;100.00
46642;BME280;32370;41.864;-88.124;2023-02-28T02:37:02;97190.51;;;2.65;100.00
46642;BME280;32370;41.864;-88.124;2023-02-28T02:39:39;97196.30;;;2.61;100.00
46642;BME280;32370;41.864;-88.124;2023-02-28T02:42:13;97206.60;;;2.59;100.00
46642;BME280;32370;41.864;-88.124;2023-02-28T02:44:47;97215.45;;;2.77;100.00
46642;BME280;32370;41.864;-88.124;2023-02-28T02:47:20;97223.56;;;2.48;100.00
46642;BME280;32370;41.864;-88.124;2023-02-28T02:49:52;97234.14;;;2.70;100.00
46642;BME280;32370;41.864;-88.124;2023-02-28T02:52:28;97242.27;;;2.70;100.00
46642;BME280;32370;41.864;-88.124;2023-02-28T02:54:57;97246.13;;;2.67;100.00
46642;BME280;32370;41.864;-88.124;2023-02-28T02:57:30;97259.42;;;2.44;100.00
46642;BME280;32370;41.864;-88.124;2023-02-28T03:00:03;97264.24;;;2.58;100.00
46642;BME280;32370;41.864;-88.124;2023-02-28T03:02:32;97268.60;;;2.58;100.00
46642;BME280;32370;41.864;-88.124;2023-02-28T03:05:07;97278.73;;;2.72;100.00
46642;BME280;32370;41.864;-88.124;2023-02-28T03:07:36;97289.47;;;2.51;100.00
46642;BME280;32370;41.864;-88.124;2023-02-28T03:10:31;97300.27;;;2.52;100.00
46642;BME280;32370;41.864;-88.124;2023-02-28T03:13:12;97303.28;;;2.67;100.00
46642;BME280;32370;41.864;-88.124;2023-02-28T03:15:55;97312.95;;;2.50;100.00
46642;BME280;32370;41.864;-88.124;2023-02-28T03:18:30;97324.50;;;2.59;100.00
46642;BME280;32370;41.864;-88.124;2023-02-28T03:21:05;97328.21;;;2.48;99.38
46642;BME280;32370;41.864;-88.124;2023-02-28T03:23:41;97337.94;;;2.48;100.00
46642;BME280;32370;41.864;-88.124;2023-02-28T03:26:17;97334.20;;;2.51;100.00
46642;BME280;32370;41.864;-88.124;2023-02-28T03:28:53;97335.45;;;2.41;100.00
46642;BME280;32370;41.864;-88.124;2023-02-28T03:31:27;97345.02;;;2.42;100.00
46642;BME280;32370;41.864;-88.124;2023-02-28T03:34:03;97353.06;;;2.33;100.00
46642;BME280;32370;41.864;-88.124;2023-02-28T03:36:37;97360.83;;;2.40;100.00
46642;BME280;32370;41.864;-88.124;2023-02-28T03:39:08;97363.95;;;2.58;100.00
46642;BME280;32370;41.864;-88.124;2023-02-28T03:41:40;97378.76;;;2.26;100.00
46642;BME280;32370;41.864;-88.124;2023-02-28T03:44:14;97377.32;;;2.20;100.00
46642;BME280;32370;41.864;-88.124;2023-02-28T03:46:47;97380.33;;;2.12;100.00
46642;BME280;32370;41.864;-88.124;2023-02-28T03:49:18;97381.75;;;2.28;100.00
46642;BME280;32370;41.864;-88.124;2023-02-28T03:51:49;97389.34;;;2.19;100.00
46642;BME280;32370;41.864;-88.124;2023-02-28T03:54:21;97390.93;;;2.47;100.00
46642;BME280;32370;41.864;-88.124;2023-02-28T03:56:53;97389.36;;;2.62;100.00
46642;BME280;32370;41.864;-88.124;2023-02-28T03:59:29;97394.76;;;2.69;100.00
46642;BME280;32370;41.864;-88.124;2023-02-28T04:02:00;97406.95;;;2.22;99.75
46642;BME280;32370;41.864;-88.124;2023-02-28T04:04:29;97417.86;;;2.18;100.00
46642;BME280;32370;41.864;-88.124;2023-02-28T04:07:03;97418.86;;;2.02;100.00
46642;BME280;32370;41.864;-88.124;2023-02-28T04:09:31;97420.11;;;2.01;99.63
46642;BME280;32370;41.864;-88.124;2023-02-28T04:11:59;97417.25;;;2.41;98.97
46642;BME280;32370;41.864;-88.124;2023-02-28T04:14:27;97446.26;;;2.39;99.21
46642;BME280;32370;41.864;-88.124;2023-02-28T04:16:55;97444.53;;;2.40;98.65
46642;BME280;32370;41.864;-88.124;2023-02-28T04:19:23;97452.14;;;2.38;98.29
46642;BME280;32370;41.864;-88.124;2023-02-28T04:21:52;97459.98;;;1.90;97.87
46642;BME280;32370;41.864;-88.124;2023-02-28T04:24:22;97466.22;;;1.95;98.52
46642;BME280;32370;41.864;-88.124;2023-02-28T04:26:52;97469.54;;;2.01;97.78
46642;BME280;32370;41.864;-88.124;2023-02-28T04:29:22;97480.05;;;2.11;97.05
46642;BME280;32370;41.864;-88.124;2023-02-28T04:31:50;97498.62;;;2.31;98.10
46642;BME280;32370;41.864;-88.124;2023-02-28T04:34:17;97502.41;;;2.29;97.44
46642;BME280;32370;41.864;-88.124;2023-02-28T04:36:46;97501.72;;;2.07;98.15
46642;BME280;32370;41.864;-88.124;2023-02-28T04:39:13;97509.79;;;1.84;97.25
46642;BME280;32370;41.864;-88.124;2023-02-28T04:41:41;97506.53;;;1.65;97.66
46642;BME280;32370;41.864;-88.124;2023-02-28T04:44:09;97510.83;;;1.72;97.50
46642;BME280;32370;41.864;-88.124;2023-02-28T04:46:37;97513.00;;;1.65;96.98
46642;BME280;32370;41.864;-88.124;2023-02-28T04:49:05;97519.16;;;1.56;97.62
46642;BME280;32370;41.864;-88.124;2023-02-28T04:51:33;97523.96;;;1.77;97.48
46642;BME280;32370;41.864;-88.124;2023-02-28T04:54:01;97520.82;;;1.74;97.58
46642;BME280;32370;41.864;-88.124;2023-02-28T04:56:29;97522.65;;;1.51;96.85
46642;BME280;32370;41.864;-88.124;2023-02-28T04:58:57;97519.34;;;1.76;96.96
46642;BME280;32370;41.864;-88.124;2023-02-28T05:01:28;97524.96;;;2.06;97.97
46642;BME280;32370;41.864;-88.124;2023-02-28T05:03:58;97523.46;;;1.62;97.55
46642;BME280;32370;41.864;-88.124;2023-02-28T05:06:27;97530.61;;;1.35;98.26
46642;BME280;32370;41.864;-88.124;2023-02-28T05:08:56;97531.42;;;1.83;98.01
46642;BME280;32370;41.864;-88.124;2023-02-28T05:11:26;97534.82;;;1.66;98.41
46642;BME280;32370;41.864;-88.124;2023-02-28T05:13:54;97537.59;;;1.74;98.66
46642;BME280;32370;41.864;-88.124;2023-02-28T05:16:23;97539.88;;;1.93;98.87
46642;BME280;32370;41.864;-88.124;2023-02-28T05:18:51;97546.65;;;2.20;99.32
46642;BME280;32370;41.864;-88.124;2023-02-28T05:21:26;97562.10;;;1.97;99.79
46642;BME280;32370;41.864;-88.124;2023-02-28T05:23:57;97564.97;;;1.83;99.26
46642;BME280;32370;41.864;-88.124;2023-02-28T05:26:25;97571.42;;;1.68;99.14
46642;BME280;32370;41.864;-88.124;2023-02-28T05:28:54;97574.97;;;1.84;100.00
46642;BME280;32370;41.864;-88.124;2023-02-28T05:31:22;97580.07;;;1.46;99.81
46642;BME280;32370;41.864;-88.124;2023-02-28T05:33:49;97580.90;;;1.72;99.92
46642;BME280;32370;41.864;-88.124;2023-02-28T05:36:17;97586.90;;;1.47;100.00
46642;BME280;32370;41.864;-88.124;2023-02-28T05:38:47;97597.31;;;1.77;100.00
46642;BME280;32370;41.864;-88.124;2023-02-28T05:41:15;97606.67;;;1.43;100.00
46642;BME280;32370;41.864;-88.124;2023-02-28T05:43:44;97607.76;;;1.69;100.00
46642;BME280;32370;41.864;-88.124;2023-02-28T05:46:12;97608.91;;;1.84;100.00
46642;BME280;32370;41.864;-88.124;2023-02-28T05:48:41;97620.44;;;1.81;100.00
46642;BME280;32370;41.864;-88.124;2023-02-28T05:51:09;97623.39;;;2.04;100.00
46642;BME280;32370;41.864;-88.124;2023-02-28T05:53:37;97629.29;;;1.83;100.00
46642;BME280;32370;41.864;-88.124;2023-02-28T05:56:05;97627.92;;;1.65;100.00
46642;BME280;32370;41.864;-88.124;2023-02-28T05:58:33;97634.03;;;1.94;100.00
46642;BME280;32370;41.864;-88.124;2023-02-28T06:01:20;97643.07;;;1.82;100.00
46642;BME280;32370;41.864;-88.124;2023-02-28T06:03:50;97649.29;;;2.06;100.00
46642;BME280;32370;41.864;-88.124;2023-02-28T06:06:19;97662.68;;;1.85;100.00
46642;BME280;32370;41.864;-88.124;2023-02-28T06:08:47;97672.16;;;1.83;100.00
46642;BME280;32370;41.864;-88.124;2023-02-28T06:11:14;97679.00;;;2.10;100.00
46642;BME280;32370;41.864;-88.124;2023-02-28T06:13:42;97682.80;;;1.90;100.00
46642;BME280;32370;41.864;-88.124;2023-02-28T06:16:11;97684.47;;;2.05;100.00
46642;BME280;32370;41.864;-88.124;2023-02-28T06:18:39;97688.73;;;1.94;100.00
46642;BME280;32370;41.864;-88.124;2023-02-28T06:21:07;97689.83;;;1.92;100.00
46642;BME280;32370;41.864;-88.124;2023-02-28T06:23:35;97698.68;;;1.68;100.00
46642;BME280;32370;41.864;-88.124;2023-02-28T06:26:03;97702.36;;;1.71;100.00
46642;BME280;32370;41.864;-88.124;2023-02-28T06:28:31;97703.92;;;1.98;100.00
46642;BME280;32370;41.864;-88.124;2023-02-28T06:30:59;97710.65;;;1.61;100.00
46642;BME280;32370;41.864;-88.124;2023-02-28T06:33:27;97715.75;;;1.68;100.00
46642;BME280;32370;41.864;-88.124;2023-02-28T06:35:55;97719.46;;;1.62;100.00
46642;BME280;32370;41.864;-88.124;2023-02-28T06:38:23;97722.94;;;1.58;100.00
46642;BME280;32370;41.864;-88.124;2023-02-28T06:40:54;97727.15;;;1.56;100.00
46642;BME280;32370;41.864;-88.124;2023-02-28T06:43:22;97728.56;;;1.98;100.00
46642;BME280;32370;41.864;-88.124;2023-02-28T06:45:53;97737.54;;;1.71;100.00
46642;BME280;32370;41.864;-88.124;2023-02-28T06:48:21;97745.35;;;2.09;100.00
46642;BME280;32370;41.864;-88.124;2023-02-28T06:50:49;97747.18;;;1.82;100.00
46642;BME280;32370;41.864;-88.124;2023-02-28T06:53:17;97751.74;;;1.84;100.00
46642;BME280;32370;41.864;-88.124;2023-02-28T06:55:45;97756.31;;;1.75;100.00
46642;BME280;32370;41.864;-88.124;2023-02-28T06:58:13;97757.09;;;1.88;100.00
46642;BME280;32370;41.864;-88.124;2023-02-28T07:00:41;97758.05;;;1.66;100.00
46642;BME280;32370;41.864;-88.124;2023-02-28T07:03:09;97756.31;;;1.91;100.00
46642;BME280;32370;41.864;-88.124;2023-02-28T07:05:39;97761.89;;;2.12;100.00
46642;BME280;32370;41.864;-88.124;2023-02-28T07:08:07;97762.84;;;2.09;100.00
46642;BME280;32370;41.864;-88.124;2023-02-28T07:10:37;97773.87;;;1.88;100.00
46642;BME280;32370;41.864;-88.124;2023-02-28T07:13:07;97779.86;;;1.86;100.00
46642;BME280;32370;41.864;-88.124;2023-02-28T07:15:35;97785.21;;;1.89;100.00
46642;BME280;32370;41.864;-88.124;2023-02-28T07:18:04;97789.80;;;1.88;100.00
46642;BME280;32370;41.864;-88.124;2023-02-28T07:20:32;97795.14;;;2.13;100.00
46642;BME280;32370;41.864;-88.124;2023-02-28T07:23:00;97801.14;;;1.89;100.00
46642;BME280;32370;41.864;-88.124;2023-02-28T07:25:29;97803.71;;;1.68;100.00
46642;BME280;32370;41.864;-88.124;2023-02-28T07:27:57;97807.24;;;1.71;100.00
46642;BME280;32370;41.864;-88.124;2023-02-28T07:30:25;97814.15;;;1.68;100.00
46642;BME280;32370;41.864;-88.124;2023-02-28T07:32:52;97814.73;;;1.63;100.00
46642;BME280;32370;41.864;-88.124;2023-02-28T07:35:20;97812.07;;;1.88;100.00
46642;BME280;32370;41.864;-88.124;2023-02-28T07:37:48;97814.11;;;1.66;100.00
46642;BME280;32370;41.864;-88.124;2023-02-28T07:40:17;97813.34;;;1.68;100.00
46642;BME280;32370;41.864;-88.124;2023-02-28T07:42:45;97814.07;;;1.57;100.00
46642;BME280;32370;41.864;-88.124;2023-02-28T07:45:13;97816.61;;;1.78;100.00
46642;BME280;32370;41.864;-88.124;2023-02-28T07:47:42;97820.62;;;1.81;100.00
46642;BME280;32370;41.864;-88.124;2023-02-28T07:50:12;97825.02;;;1.83;100.00
46642;BME280;32370;41.864;-88.124;2023-02-28T07:52:41;97831.70;;;1.73;100.00
46642;BME280;32370;41.864;-88.124;2023-02-28T07:55:10;97836.46;;;1.14;100.00
46642;BME280;32370;41.864;-88.124;2023-02-28T07:57:38;97839.17;;;1.54;100.00
46642;BME280;32370;41.864;-88.124;2023-02-28T08:00:09;97839.45;;;1.73;100.00
46642;BME280;32370;41.864;-88.124;2023-02-28T08:02:39;97847.05;;;1.57;100.00
46642;BME280;32370;41.864;-88.124;2023-02-28T08:05:08;97852.27;;;1.56;100.00
46642;BME280;32370;41.864;-88.124;2023-02-28T08:07:36;97863.14;;;1.48;100.00
46642;BME280;32370;41.864;-88.124;2023-02-28T08:10:05;97864.62;;;1.74;100.00
46642;BME280;32370;41.864;-88.124;2023-02-28T08:12:33;97867.34;;;1.47;100.00
46642;BME280;32370;41.864;-88.124;2023-02-28T08:15:01;97871.48;;;1.47;100.00
46642;BME280;32370;41.864;-88.124;2023-02-28T08:17:29;97873.50;;;1.52;100.00
46642;BME280;32370;41.864;-88.124;2023-02-28T08:19:57;97878.29;;;1.37;100.00
46642;BME280;32370;41.864;-88.124;2023-02-28T08:22:25;97880.48;;;1.20;100.00
46642;BME280;32370;41.864;-88.124;2023-02-28T08:24:53;97886.32;;;1.23;100.00
46642;BME280;32370;41.864;-88.124;2023-02-28T08:27:21;97888.55;;;1.61;100.00
46642;BME280;32370;41.864;-88.124;2023-02-28T08:29:49;97890.35;;;1.57;100.00
46642;BME280;32370;41.864;-88.124;2023-02-28T08:32:17;97896.37;;;1.51;100.00
46642;BME280;32370;41.864;-88.124;2023-02-28T08:34:44;97898.24;;;1.37;100.00
46642;BME280;32370;41.864;-88.124;2023-02-28T08:37:12;97902.80;;;1.22;100.00
46642;BME280;32370;41.864;-88.124;2023-02-28T08:39:40;97904.37;;;1.61;100.00
46642;BME280;32370;41.864;-88.124;2023-02-28T08:42:08;97909.39;;;1.67;100.00
46642;BME280;32370;41.864;-88.124;2023-02-28T08:44:36;97916.14;;;1.63;100.00
46642;BME280;32370;41.864;-88.124;2023-02-28T08:47:04;97919.99;;;1.58;100.00
46642;BME280;32370;41.864;-88.124;2023-02-28T08:49:32;97925.63;;;1.60;100.00
46642;BME280;32370;41.864;-88.124;2023-02-28T08:52:00;97922.45;;;1.52;100.00
46642;BME280;32370;41.864;-88.124;2023-02-28T08:54:28;97922.31;;;1.65;100.00
46642;BME280;32370;41.864;-88.124;2023-02-28T08:56:56;97928.94;;;1.80;100.00
46642;BME280;32370;41.864;-88.124;2023-02-28T08:59:24;97937.55;;;1.62;100.00
46642;BME280;32370;41.864;-88.124;2023-02-28T09:01:52;97935.93;;;1.64;100.00
46642;BME280;32370;41.864;-88.124;2023-02-28T09:04:20;97944.74;;;1.66;100.00
46642;BME280;32370;41.864;-88.124;2023-02-28T09:06:48;97954.19;;;1.60;100.00
46642;BME280;32370;41.864;-88.124;2023-02-28T09:09:17;97959.17;;;1.68;100.00
46642;BME280;32370;41.864;-88.124;2023-02-28T09:11:44;97959.49;;;1.55;100.00
46642;BME280;32370;41.864;-88.124;2023-02-28T09:14:12;97964.55;;;1.73;100.00
46642;BME280;32370;41.864;-88.124;2023-02-28T09:16:40;97973.33;;;1.40;100.00
46642;BME280;32370;41.864;-88.124;2023-02-28T09:19:11;97976.47;;;1.69;100.00
46642;BME280;32370;41.864;-88.124;2023-02-28T09:21:39;97974.36;;;1.52;100.00
46642;BME280;32370;41.864;-88.124;2023-02-28T09:24:08;97980.68;;;1.43;100.00
46642;BME280;32370;41.864;-88.124;2023-02-28T09:26:37;97987.33;;;1.60;100.00
46642;BME280;32370;41.864;-88.124;2023-02-28T09:29:05;97992.73;;;1.27;100.00
46642;BME280;32370;41.864;-88.124;2023-02-28T09:31:33;97997.41;;;1.07;100.00
46642;BME280;32370;41.864;-88.124;2023-02-28T09:34:01;98004.10;;;1.63;100.00
46642;BME280;32370;41.864;-88.124;2023-02-28T09:36:29;98010.01;;;1.55;100.00
46642;BME280;32370;41.864;-88.124;2023-02-28T09:38:57;98010.55;;;1.55;100.00
46642;BME280;32370;41.864;-88.124;2023-02-28T09:41:26;98012.20;;;1.24;100.00
46642;BME280;32370;41.864;-88.124;2023-02-28T09:43:56;98013.91;;;1.28;100.00
46642;BME280;32370;41.864;-88.124;2023-02-28T09:46:32;98030.02;;;1.55;100.00
46642;BME280;32370;41.864;-88.124;2023-02-28T09:49:03;98033.73;;;1.45;100.00
46642;BME280;32370;41.864;-88.124;2023-02-28T09:51:39;98038.00;;;1.62;100.00
46642;BME280;32370;41.864;-88.124;2023-02-28T09:54:14;98041.30;;;1.10;100.00
46642;BME280;32370;41.864;-88.124;2023-02-28T09:56:44;98038.40;;;1.25;100.00
46642;BME280;32370;41.864;-88.124;2023-02-28T09:59:21;98037.60;;;1.45;100.00
46642;BME280;32370;41.864;-88.124;2023-02-28T10:02:00;98041.62;;;1.48;100.00
46642;BME280;32370;41.864;-88.124;2023-02-28T10:04:40;98048.85;;;1.42;100.00
46642;BME280;32370;41.864;-88.124;2023-02-28T10:07:20;98056.29;;;1.49;100.00
46642;BME280;32370;41.864;-88.124;2023-02-28T10:09:54;98064.34;;;1.32;100.00
46642;BME280;32370;41.864;-88.124;2023-02-28T10:12:24;98073.92;;;1.53;100.00
46642;BME280;32370;41.864;-88.124;2023-02-28T10:14:54;98082.30;;;1.32;100.00
46642;BME280;32370;41.864;-88.124;2023-02-28T10:17:39;98081.99;;;1.50;100.00
46642;BME280;32370;41.864;-88.124;2023-02-28T10:20:12;98090.66;;;1.50;100.00
46642;BME280;32370;41.864;-88.124;2023-02-28T10:22:53;98093.93;;;1.51;100.00
46642;BME280;32370;41.864;-88.124;2023-02-28T10:25:26;98092.10;;;1.29;100.00
46642;BME280;32370;41.864;-88.124;2023-02-28T10:28:00;98099.76;;;1.51;100.00
46642;BME280;32370;41.864;-88.124;2023-02-28T10:30:29;98098.34;;;1.50;100.00
46642;BME280;32370;41.864;-88.124;2023-02-28T10:32:56;98105.32;;;1.54;100.00
46642;BME280;32370;41.864;-88.124;2023-02-28T10:35:26;98111.37;;;1.74;100.00
46642;BME280;32370;41.864;-88.124;2023-02-28T10:37:57;98119.00;;;1.48;100.00
46642;BME280;32370;41.864;-88.124;2023-02-28T10:40:30;98120.13;;;1.50;100.00
46642;BME280;32370;41.864;-88.124;2023-02-28T10:43:00;98123.41;;;1.49;100.00
46642;BME280;32370;41.864;-88.124;2023-02-28T10:45:31;98127.69;;;1.33;100.00
46642;BME280;32370;41.864;-88.124;2023-02-28T10:48:02;98130.56;;;1.28;100.00
46642;BME280;32370;41.864;-88.124;2023-02-28T10:50:35;98131.84;;;1.32;100.00
46642;BME280;32370;41.864;-88.124;2023-02-28T10:53:44;98137.14;;;2.19;100.00
46642;BME280;32370;41.864;-88.124;2023-02-28T10:56:16;98148.05;;;1.25;100.00
46642;BME280;32370;41.864;-88.124;2023-02-28T10:58:50;98146.16;;;1.28;100.00
46642;BME280;32370;41.864;-88.124;2023-02-28T11:01:20;98150.03;;;1.28;100.00
46642;BME280;32370;41.864;-88.124;2023-02-28T11:03:49;98149.35;;;1.22;100.00
46642;BME280;32370;41.864;-88.124;2023-02-28T11:06:20;98149.27;;;1.30;100.00
46642;BME280;32370;41.864;-88.124;2023-02-28T11:08:51;98145.25;;;1.47;100.00
46642;BME280;32370;41.864;-88.124;2023-02-28T11:11:24;98148.06;;;1.38;100.00
46642;BME280;32370;41.864;-88.124;2023-02-28T11:13:54;98157.47;;;1.39;100.00
46642;BME280;32370;41.864;-88.124;2023-02-28T11:16:33;98168.80;;;1.28;100.00
46642;BME280;32370;41.864;-88.124;2023-02-28T11:19:02;98170.48;;;1.17;100.00
46642;BME280;32370;41.864;-88.124;2023-02-28T11:21:34;98177.08;;;1.26;100.00
46642;BME280;32370;41.864;-88.124;2023-02-28T11:24:07;98182.36;;;1.25;100.00
46642;BME280;32370;41.864;-88.124;2023-02-28T11:26:43;98187.64;;;1.23;100.00
46642;BME280;32370;41.864;-88.124;2023-02-28T11:29:18;98198.14;;;1.14;100.00
46642;BME280;32370;41.864;-88.124;2023-02-28T11:32:02;98195.99;;;1.37;100.00
46642;BME280;32370;41.864;-88.124;2023-02-28T11:34:32;98198.39;;;1.22;100.00
46642;BME280;32370;41.864;-88.124;2023-02-28T11:37:01;98206.77;;;1.06;100.00
46642;BME280;32370;41.864;-88.124;2023-02-28T11:39:30;98204.42;;;1.21;100.00
46642;BME280;32370;41.864;-88.124;2023-02-28T11:42:09;98203.91;;;1.09;100.00
46642;BME280;32370;41.864;-88.124;2023-02-28T11:44:50;98220.69;;;1.31;100.00
46642;BME280;32370;41.864;-88.124;2023-02-28T11:47:30;98225.53;;;1.09;100.00
46642;BME280;32370;41.864;-88.124;2023-02-28T11:50:14;98228.26;;;1.14;100.00
46642;BME280;32370;41.864;-88.124;2023-02-28T11:52:50;98231.16;;;1.12;100.00
46642;BME280;32370;41.864;-88.124;2023-02-28T11:55:25;98234.88;;;1.11;100.00
46642;BME280;32370;41.864;-88.124;2023-02-28T11:58:14;98235.85;;;0.83;100.00
46642;BME280;32370;41.864;-88.124;2023-02-28T12:00:59;98237.91;;;1.02;100.00
46642;BME280;32370;41.864;-88.124;2023-02-28T12:03:37;98244.23;;;1.40;100.00
46642;BME280;32370;41.864;-88.124;2023-02-28T12:06:19;98260.25;;;1.13;100.00
46642;BME280;32370;41.864;-88.124;2023-02-28T12:08:59;98276.72;;;1.08;100.00
46642;BME280;32370;41.864;-88.124;2023-02-28T12:11:38;98282.09;;;1.08;100.00
46642;BME280;32370;41.864;-88.124;2023-02-28T12:14:53;98290.11;;;1.04;100.00
46642;BME280;32370;41.864;-88.124;2023-02-28T12:17:34;98304.73;;;1.10;100.00
46642;BME280;32370;41.864;-88.124;2023-02-28T12:20:16;98315.76;;;1.29;100.00
46642;BME280;32370;41.864;-88.124;2023-02-28T12:22:56;98317.37;;;1.05;100.00
46642;BME280;32370;41.864;-88.124;2023-02-28T12:25:43;98327.48;;;1.09;100.00
46642;BME280;32370;41.864;-88.124;2023-02-28T12:28:17;98334.07;;;1.04;100.00
46642;BME280;32370;41.864;-88.124;2023-02-28T12:30:53;98351.24;;;1.16;100.00
46642;BME280;32370;41.864;-88.124;2023-02-28T12:33:28;98358.23;;;1.18;100.00
46642;BME280;32370;41.864;-88.124;2023-02-28T12:36:03;98365.22;;;1.08;100.00
46642;BME280;32370;41.864;-88.124;2023-02-28T12:38:38;98372.49;;;1.19;100.00
46642;BME280;32370;41.864;-88.124;2023-02-28T12:41:13;98381.04;;;0.94;100.00
46642;BME280;32370;41.864;-88.124;2023-02-28T12:43:46;98382.00;;;1.01;100.00
46642;BME280;32370;41.864;-88.124;2023-02-28T12:46:19;98381.63;;;0.89;100.00
46642;BME280;32370;41.864;-88.124;2023-02-28T12:48:53;98382.97;;;1.56;100.00
46642;BME280;32370;41.864;-88.124;2023-02-28T12:51:24;98387.81;;;0.99;100.00
46642;BME280;32370;41.864;-88.124;2023-02-28T12:54:01;98386.72;;;1.36;99.64
46642;BME280;32370;41.864;-88.124;2023-02-28T12:56:40;98400.33;;;1.30;99.24
46642;BME280;32370;41.864;-88.124;2023-02-28T12:59:16;98406.36;;;1.29;98.90
46642;BME280;32370;41.864;-88.124;2023-02-28T13:01:57;98413.73;;;1.26;98.21
46642;BME280;32370;41.864;-88.124;2023-02-28T13:05:02;98411.09;;;1.02;99.43